Terminal Aerodrome Forecast
Issued by NWS Newport/Morehead City, NC

Current Version | Previous Version | Text Only | Print | Product List | Glossary Off
Versions: 1 2 3 4 5 6 7 8 9 10 11 12 13 14 15 16 17 18

102
FTUS42 KMHX 161720
TAFEWN
TAF
KEWN 161720Z 1618/1718 07006KT P6SM OVC020
     FM170200 00000KT P6SM BKN070
     FM170800 VRB03KT 5SM BR BKN070
     FM171200 VRB04KT P6SM BKN015
     FM171700 24006KT P6SM BKN130=

USA.gov is the U.S. government's official web portal to all federal, state and local government web resources and services.